Emerald, Australia
Current Conditions -  °F | °C
As of 10:00 PM on Thursday 27 Nov 2014 (Local Time) from YEML Reporting Station
Clear Clear  
Wind Chill: 79°   Ceiling: Unl
Heat Index: 80°   Visibility: 6mi
Dew Point: 63°   Wind: 9mph
Humidity: 57%   Direction: 60°ENE
Pressure: 29.91"   Gusts: NA
Location:  23.52°S, 148.16°E
Report Text: YEML 271200Z AUTO 06008KT 9999 // NCD 26/17 Q1013
Loading
Personal Weather Stations






























Interactive Weather Map New forecast layout! Learn more

10-Day Weather Forecast

Advertisements
Track Severe Weather on mobile